CYZE

Details ICAO CYZE (YZE)
Name GORE BAY MANITOULIN
Region Canada
Timezone America/Toronto (UTC-5.0)
Plans Departing 1
Arriving 1
Stats Elevation 635 ft / 194 m (AMSL)
Location 45.885278° -82.567779°
Runways 1
Magnetic Variation 8.766° W
Sunrise 2017-12-17 13:07:56 UTC / 2017-12-17 08:07:56 Local
Sunset 2017-12-17 21:47:48 UTC / 2017-12-17 16:47:48 Local
Advertisement - Login to hide

Runways

ID Width Length Bearing (true) Bearing (mag) Surface Threshold Offset Overrun Length
11 100 ft / 30 m 4,837 ft / 1,474 m 97.22° 105.99° Asphalt 0 ft / 0 m 300 ft / 91 m
29 100 ft / 30 m 4,837 ft / 1,474 m 277.23° 286.00° Asphalt 0 ft / 0 m 300 ft / 91 m

Map

Weather


0- 5 10 15 20 25 30 35+ Temperature / ° C

Clouds and Precipitation
Forecast for 2017-12-18 06:00 UTC. Updated 39 minutes ago

Ground ~20,000 ft ~40,000 ft Winds

METAR

CYZE 180138Z AUTO 10010KT 9SM BKN024 OVC120 M08/M10 A3007 RMK SLP200

TAF

TAF CYZE 171938Z 1720/1723 09008KT P6SM OVC020 TEMPO 1720/1723 SCT020 RMK FCST BASED ON AUTO OBS. NXT FCST WILL BE ISSUED AT 181045Z

Frequencies

Recorded 128.72 MHz AWOS
Unicom 122.80 MHz CTAF/UNICOM
Warning: Do not use this data for real-world aviation or navigation. No guarantee of current accuracy is given.